sensor_id;sensor_type;location;lat;lon;timestamp;pressure;altitude;pressure_sealevel;temperature;humidity
73306;BME280;61530;51.158;0.880;2022-07-29T00:00:23;1014.56;;;17.3125;38.1463
73306;BME280;61530;51.158;0.880;2022-07-29T00:01:28;1014.53;;;17.25;37.7277
73306;BME280;61530;51.158;0.880;2022-07-29T00:02:28;1014.52;;;17.1875;37.623
73306;BME280;61530;51.158;0.880;2022-07-29T00:03:35;1014.49;;;17.1875;37.7741
73306;BME280;61530;51.158;0.880;2022-07-29T00:04:40;1014.49;;;17.1875;38.2445
73306;BME280;61530;51.158;0.880;2022-07-29T00:05:41;1014.51;;;17.25;37.6806
73306;BME280;61530;51.158;0.880;2022-07-29T00:06:47;1014.47;;;17.25;37.0766
73306;BME280;61530;51.158;0.880;2022-07-29T00:07:52;1014.48;;;17.25;37.465
73306;BME280;61530;51.158;0.880;2022-07-29T00:08:52;1014.49;;;17.1875;37.6803
73306;BME280;61530;51.158;0.880;2022-07-29T00:09:59;1014.48;;;17.1875;37.8022
73306;BME280;61530;51.158;0.880;2022-07-29T00:11:04;1014.49;;;17.1875;37.8316
73306;BME280;61530;51.158;0.880;2022-07-29T00:12:05;1014.48;;;17.1875;37.7039
73306;BME280;61530;51.158;0.880;2022-07-29T00:13:05;1014.48;;;17.25;38.2155
73306;BME280;61530;51.158;0.880;2022-07-29T00:14:05;1014.47;;;17.25;38.0996
73306;BME280;61530;51.158;0.880;2022-07-29T00:15:12;1014.44;;;17.25;37.8845
73306;BME280;61530;51.158;0.880;2022-07-29T00:16:17;1014.44;;;17.1875;38.1052
73306;BME280;61530;51.158;0.880;2022-07-29T00:17:17;1014.44;;;17.1875;37.797
73306;BME280;61530;51.158;0.880;2022-07-29T00:18:24;1014.42;;;17.1875;38.1335
73306;BME280;61530;51.158;0.880;2022-07-29T00:19:29;1014.41;;;17.1875;38.2094
73306;BME280;61530;51.158;0.880;2022-07-29T00:20:30;1014.41;;;17.1875;38.3548
73306;BME280;61530;51.158;0.880;2022-07-29T00:21:35;1014.42;;;17.1875;37.6748
73306;BME280;61530;51.158;0.880;2022-07-29T00:22:41;1014.41;;;17.0625;37.6227
73306;BME280;61530;51.158;0.880;2022-07-29T00:23:41;1014.38;;;17.0625;38.2564
73306;BME280;61530;51.158;0.880;2022-07-29T00:24:48;1014.38;;;17.0625;38.2915
73306;BME280;61530;51.158;0.880;2022-07-29T00:25:53;1014.37;;;17.125;38.6287
73306;BME280;61530;51.158;0.880;2022-07-29T00:26:53;1014.37;;;17.0625;38.716
73306;BME280;61530;51.158;0.880;2022-07-29T00:27:59;1014.36;;;17.125;38.4257
73306;BME280;61530;51.158;0.880;2022-07-29T00:29:00;1014.35;;;17.0625;39.1163
73306;BME280;61530;51.158;0.880;2022-07-29T00:30:07;1014.35;;;17.1875;38.3904
73306;BME280;61530;51.158;0.880;2022-07-29T00:31:12;1014.37;;;17.125;38.6922
73306;BME280;61530;51.158;0.880;2022-07-29T00:32:17;1014.36;;;17.1875;38.3499
73306;BME280;61530;51.158;0.880;2022-07-29T00:33:17;1014.37;;;17.125;38.4252
73306;BME280;61530;51.158;0.880;2022-07-29T00:34:24;1014.35;;;17.125;38.3206
73306;BME280;61530;51.158;0.880;2022-07-29T00:35:29;1014.35;;;17.0625;38.4136
73306;BME280;61530;51.158;0.880;2022-07-29T00:36:29;1014.36;;;17.125;38.5473
73306;BME280;61530;51.158;0.880;2022-07-29T00:37:36;1014.35;;;17.125;38.8323
73306;BME280;61530;51.158;0.880;2022-07-29T00:38:35;1014.35;;;17.0625;39.3199
73306;BME280;61530;51.158;0.880;2022-07-29T00:39:41;1014.38;;;17.1875;39.204
73306;BME280;61530;51.158;0.880;2022-07-29T00:40:48;1014.36;;;17.1875;38.8787
73306;BME280;61530;51.158;0.880;2022-07-29T00:41:53;1014.34;;;17.1875;39.0643
73306;BME280;61530;51.158;0.880;2022-07-29T00:42:53;1014.31;;;17.3125;39.5748
73306;BME280;61530;51.158;0.880;2022-07-29T00:43:59;1014.31;;;17.25;39.0008
73306;BME280;61530;51.158;0.880;2022-07-29T00:45:05;1014.31;;;17.25;39.0237
73306;BME280;61530;51.158;0.880;2022-07-29T00:46:05;1014.29;;;17.25;38.9076
73306;BME280;61530;51.158;0.880;2022-07-29T00:47:12;1014.27;;;17.1875;39.1222
73306;BME280;61530;51.158;0.880;2022-07-29T00:48:17;1014.28;;;17.1875;38.8201
73306;BME280;61530;51.158;0.880;2022-07-29T00:49:17;1014.3;;;17.1875;38.4193
73306;BME280;61530;51.158;0.880;2022-07-29T00:50:24;1014.28;;;17.125;38.7968
73306;BME280;61530;51.158;0.880;2022-07-29T00:51:30;1014.27;;;17.0625;38.5415
73306;BME280;61530;51.158;0.880;2022-07-29T00:52:29;1014.3;;;17.125;38.315
73306;BME280;61530;51.158;0.880;2022-07-29T00:53:31;1014.28;;;17.125;39.0873
73306;BME280;61530;51.158;0.880;2022-07-29T00:54:39;1014.27;;;17.0625;38.9946
73306;BME280;61530;51.158;0.880;2022-07-29T00:55:42;1014.29;;;17.1875;39.0588
73306;BME280;61530;51.158;0.880;2022-07-29T00:56:42;1014.27;;;17.0625;38.5135
73306;BME280;61530;51.158;0.880;2022-07-29T00:57:49;1014.26;;;17.0;38.8557
73306;BME280;61530;51.158;0.880;2022-07-29T00:58:55;1014.24;;;16.9375;38.7689
73306;BME280;61530;51.158;0.880;2022-07-29T00:59:54;1014.24;;;16.875;38.6004
73306;BME280;61530;51.158;0.880;2022-07-29T01:01:00;1014.21;;;16.8125;38.2695
73306;BME280;61530;51.158;0.880;2022-07-29T01:02:06;1014.24;;;16.75;38.8212
73306;BME280;61530;51.158;0.880;2022-07-29T01:03:06;1014.21;;;16.8125;39.1811
73306;BME280;61530;51.158;0.880;2022-07-29T01:04:07;1014.23;;;16.8125;39.4366
73306;BME280;61530;51.158;0.880;2022-07-29T01:05:15;1014.24;;;16.875;39.4541
73306;BME280;61530;51.158;0.880;2022-07-29T01:06:20;1014.22;;;16.875;39.3148
73306;BME280;61530;51.158;0.880;2022-07-29T01:07:26;1014.24;;;16.8125;38.9029
73306;BME280;61530;51.158;0.880;2022-07-29T01:08:31;1014.23;;;16.6875;39.0077
73306;BME280;61530;51.158;0.880;2022-07-29T01:09:32;1014.21;;;16.6875;39.3556
73306;BME280;61530;51.158;0.880;2022-07-29T01:10:38;1014.18;;;16.6875;39.3326
73306;BME280;61530;51.158;0.880;2022-07-29T01:11:46;1014.18;;;16.75;39.4603
73306;BME280;61530;51.158;0.880;2022-07-29T01:12:45;1014.16;;;16.75;39.0084
73306;BME280;61530;51.158;0.880;2022-07-29T01:13:50;1014.15;;;16.8125;39.8084
73306;BME280;61530;51.158;0.880;2022-07-29T01:14:55;1014.16;;;16.875;40.0114
73306;BME280;61530;51.158;0.880;2022-07-29T01:15:59;1014.16;;;16.875;40.3126
73306;BME280;61530;51.158;0.880;2022-07-29T01:17:01;1014.14;;;16.9375;39.5013
73306;BME280;61530;51.158;0.880;2022-07-29T01:18:07;1014.17;;;16.75;38.9912
73306;BME280;61530;51.158;0.880;2022-07-29T01:19:20;1014.14;;;16.6875;39.2521
73306;BME280;61530;51.158;0.880;2022-07-29T01:20:13;1014.16;;;16.5625;40.0055
73306;BME280;61530;51.158;0.880;2022-07-29T01:21:23;1014.16;;;16.4375;39.4264
73306;BME280;61530;51.158;0.880;2022-07-29T01:22:37;1014.13;;;16.4375;39.4438
73306;BME280;61530;51.158;0.880;2022-07-29T01:23:39;1014.13;;;16.25;40.2895
73306;BME280;61530;51.158;0.880;2022-07-29T01:24:36;1014.15;;;16.3125;39.9074
73306;BME280;61530;51.158;0.880;2022-07-29T01:26:43;1014.13;;;16.25;40.2142
73306;BME280;61530;51.158;0.880;2022-07-29T01:26:51;1014.15;;;16.25;40.2316
73306;BME280;61530;51.158;0.880;2022-07-29T01:28:01;1014.12;;;16.3125;40.2548
73306;BME280;61530;51.158;0.880;2022-07-29T01:29:00;1014.08;;;16.4375;40.4575
73306;BME280;61530;51.158;0.880;2022-07-29T01:29:58;1014.08;;;16.5;40.6717
73306;BME280;61530;51.158;0.880;2022-07-29T01:31:03;1014.08;;;16.5;40.8221
73306;BME280;61530;51.158;0.880;2022-07-29T01:32:11;1014.08;;;16.5625;40.7932
73306;BME280;61530;51.158;0.880;2022-07-29T01:33:17;1014.12;;;16.5;40.8394
73306;BME280;61530;51.158;0.880;2022-07-29T01:34:21;1014.08;;;16.6875;40.8626
73306;BME280;61530;51.158;0.880;2022-07-29T01:35:18;1014.13;;;16.6875;40.77
73306;BME280;61530;51.158;0.880;2022-07-29T01:36:23;1014.12;;;16.6875;40.6832
73306;BME280;61530;51.158;0.880;2022-07-29T01:37:20;1014.12;;;16.6875;41.3483
73306;BME280;61530;51.158;0.880;2022-07-29T01:38:25;1014.15;;;16.625;41.2212
73306;BME280;61530;51.158;0.880;2022-07-29T01:39:31;1014.1;;;16.625;40.6948
73306;BME280;61530;51.158;0.880;2022-07-29T01:40:33;1014.13;;;16.625;40.851
73306;BME280;61530;51.158;0.880;2022-07-29T01:41:37;1014.1;;;16.5;40.77
73306;BME280;61530;51.158;0.880;2022-07-29T01:42:43;1014.12;;;16.5;40.7758
73306;BME280;61530;51.158;0.880;2022-07-29T01:43:43;1014.12;;;16.5;40.9436
73306;BME280;61530;51.158;0.880;2022-07-29T01:44:50;1014.15;;;16.5;40.6196
73306;BME280;61530;51.158;0.880;2022-07-29T01:45:50;1014.15;;;16.5625;40.7527
73306;BME280;61530;51.158;0.880;2022-07-29T01:46:56;1014.18;;;16.5;41.0014
73306;BME280;61530;51.158;0.880;2022-07-29T01:47:56;1014.17;;;16.5625;40.6196
73306;BME280;61530;51.158;0.880;2022-07-29T01:49:02;1014.18;;;16.5625;41.4062
73306;BME280;61530;51.158;0.880;2022-07-29T01:49:58;1014.16;;;16.5625;40.8857
73306;BME280;61530;51.158;0.880;2022-07-29T01:51:04;1014.16;;;16.4375;40.5907
73306;BME280;61530;51.158;0.880;2022-07-29T01:52:07;1014.15;;;16.3125;40.6774
73306;BME280;61530;51.158;0.880;2022-07-29T01:53:08;1014.13;;;16.25;40.2494
73306;BME280;61530;51.158;0.880;2022-07-29T01:54:14;1014.11;;;16.1875;40.8972
73306;BME280;61530;51.158;0.880;2022-07-29T01:55:13;1014.11;;;16.1875;40.5618
73306;BME280;61530;51.158;0.880;2022-07-29T01:56:17;1014.1;;;16.0625;40.7584
73306;BME280;61530;51.158;0.880;2022-07-29T01:57:27;1014.1;;;16.0;40.0298
73306;BME280;61530;51.158;0.880;2022-07-29T01:58:29;1014.12;;;16.0625;41.2556
73306;BME280;61530;51.158;0.880;2022-07-29T01:59:29;1014.11;;;16.0625;41.059
73306;BME280;61530;51.158;0.880;2022-07-29T02:00:34;1014.12;;;16.125;41.0937
73306;BME280;61530;51.158;0.880;2022-07-29T02:01:40;1014.11;;;16.125;41.1457
73306;BME280;61530;51.158;0.880;2022-07-29T02:02:42;1014.12;;;16.125;41.7527
73306;BME280;61530;51.158;0.880;2022-07-29T02:03:46;1014.1;;;16.125;40.5271
73306;BME280;61530;51.158;0.880;2022-07-29T02:04:52;1014.11;;;16.125;40.1801
73306;BME280;61530;51.158;0.880;2022-07-29T02:05:53;1014.09;;;16.0;40.2033
73306;BME280;61530;51.158;0.880;2022-07-29T02:07:01;1014.1;;;15.75;40.5271
73306;BME280;61530;51.158;0.880;2022-07-29T02:08:04;1014.1;;;15.75;40.4867
73306;BME280;61530;51.158;0.880;2022-07-29T02:09:06;1014.13;;;15.6875;40.4751
73306;BME280;61530;51.158;0.880;2022-07-29T02:10:12;1014.11;;;15.6875;39.799
73306;BME280;61530;51.158;0.880;2022-07-29T02:11:16;1014.12;;;15.4375;39.5508
73306;BME280;61530;51.158;0.880;2022-07-29T02:12:18;1014.16;;;15.3125;40.7697
73306;BME280;61530;51.158;0.880;2022-07-29T02:13:24;1014.14;;;15.1875;41.0641
73306;BME280;61530;51.158;0.880;2022-07-29T02:14:32;1014.14;;;15.25;41.0236
73306;BME280;61530;51.158;0.880;2022-07-29T02:15:30;1014.13;;;15.1875;41.2371
73306;BME280;61530;51.158;0.880;2022-07-29T02:16:36;1014.14;;;15.125;41.4506
73306;BME280;61530;51.158;0.880;2022-07-29T02:17:43;1014.12;;;15.1875;41.4277
73306;BME280;61530;51.158;0.880;2022-07-29T02:18:41;1014.12;;;15.25;41.3007
73306;BME280;61530;51.158;0.880;2022-07-29T02:19:48;1014.11;;;15.25;41.8953
73306;BME280;61530;51.158;0.880;2022-07-29T02:20:54;1014.12;;;15.3125;41.5549
73306;BME280;61530;51.158;0.880;2022-07-29T02:21:54;1014.12;;;15.25;41.6358
73306;BME280;61530;51.158;0.880;2022-07-29T02:22:59;1014.08;;;15.25;41.0758
73306;BME280;61530;51.158;0.880;2022-07-29T02:24:05;1014.09;;;15.25;41.1971
73306;BME280;61530;51.158;0.880;2022-07-29T02:25:06;1014.1;;;15.3125;40.9199
73306;BME280;61530;51.158;0.880;2022-07-29T02:26:11;1014.1;;;15.1875;40.4982
73306;BME280;61530;51.158;0.880;2022-07-29T02:27:17;1014.13;;;15.25;41.6242
73306;BME280;61530;51.158;0.880;2022-07-29T02:28:17;1014.15;;;15.25;41.0352
73306;BME280;61530;51.158;0.880;2022-07-29T02:29:26;1014.15;;;15.1875;41.2026
73306;BME280;61530;51.158;0.880;2022-07-29T02:30:29;1014.14;;;15.25;41.5085
73306;BME280;61530;51.158;0.880;2022-07-29T02:31:32;1014.16;;;15.25;41.9588
73306;BME280;61530;51.158;0.880;2022-07-29T02:32:36;1014.15;;;15.25;41.3701
73306;BME280;61530;51.158;0.880;2022-07-29T02:33:40;1014.14;;;15.25;41.6873
73306;BME280;61530;51.158;0.880;2022-07-29T02:34:41;1014.16;;;15.3125;42.028
73306;BME280;61530;51.158;0.880;2022-07-29T02:35:47;1014.14;;;15.3125;42.0513
73306;BME280;61530;51.158;0.880;2022-07-29T02:36:52;1014.15;;;15.375;42.0859
73306;BME280;61530;51.158;0.880;2022-07-29T02:37:53;1014.14;;;15.375;42.386
73306;BME280;61530;51.158;0.880;2022-07-29T02:39:00;1014.14;;;15.4375;42.138
73306;BME280;61530;51.158;0.880;2022-07-29T02:40:09;1014.16;;;15.5625;41.7401
73306;BME280;61530;51.158;0.880;2022-07-29T02:41:08;1014.15;;;15.5625;41.688
73306;BME280;61530;51.158;0.880;2022-07-29T02:42:14;1014.15;;;15.5;41.9131
73306;BME280;61530;51.158;0.880;2022-07-29T02:43:17;1014.13;;;15.5;41.8382
73306;BME280;61530;51.158;0.880;2022-07-29T02:44:19;1014.15;;;15.5625;41.919
73306;BME280;61530;51.158;0.880;2022-07-29T02:45:23;1014.13;;;15.625;41.7863
73306;BME280;61530;51.158;0.880;2022-07-29T02:46:29;1014.13;;;15.6875;41.8325
73306;BME280;61530;51.158;0.880;2022-07-29T02:47:27;1014.11;;;15.6875;41.5437
73306;BME280;61530;51.158;0.880;2022-07-29T02:48:31;1014.12;;;15.75;41.6247
73306;BME280;61530;51.158;0.880;2022-07-29T02:49:35;1014.11;;;15.8125;41.6537
73306;BME280;61530;51.158;0.880;2022-07-29T02:50:33;1014.13;;;15.8125;41.9712
73306;BME280;61530;51.158;0.880;2022-07-29T02:51:42;1014.13;;;15.75;41.5147
73306;BME280;61530;51.158;0.880;2022-07-29T02:52:41;1014.15;;;15.75;41.4336
73306;BME280;61530;51.158;0.880;2022-07-29T02:53:42;1014.14;;;15.625;41.734
73306;BME280;61530;51.158;0.880;2022-07-29T02:54:54;1014.18;;;15.5625;42.1034
73306;BME280;61530;51.158;0.880;2022-07-29T02:55:56;1014.14;;;15.5625;41.8611
73306;BME280;61530;51.158;0.880;2022-07-29T02:56:54;1014.19;;;15.5625;41.1912
73306;BME280;61530;51.158;0.880;2022-07-29T02:58:02;1014.17;;;15.5;41.526
73306;BME280;61530;51.158;0.880;2022-07-29T02:59:10;1014.2;;;15.4375;41.3931
73306;BME280;61530;51.158;0.880;2022-07-29T03:00:07;1014.18;;;15.4375;41.5835
73306;BME280;61530;51.158;0.880;2022-07-29T03:01:14;1014.19;;;15.375;41.601
73306;BME280;61530;51.158;0.880;2022-07-29T03:02:17;1014.19;;;15.4375;41.1218
73306;BME280;61530;51.158;0.880;2022-07-29T03:03:21;1014.19;;;15.375;41.1276
73306;BME280;61530;51.158;0.880;2022-07-29T03:04:24;1014.2;;;15.375;41.2082
73306;BME280;61530;51.158;0.880;2022-07-29T03:05:29;1014.21;;;15.25;41.3982
73306;BME280;61530;51.158;0.880;2022-07-29T03:06:30;1014.19;;;15.125;41.3808
73306;BME280;61530;51.158;0.880;2022-07-29T03:07:31;1014.17;;;15.0;42.176
73306;BME280;61530;51.158;0.880;2022-07-29T03:08:37;1014.19;;;14.9375;40.5269
73306;BME280;61530;51.158;0.880;2022-07-29T03:09:42;1014.21;;;14.75;43.4172
73306;BME280;61530;51.158;0.880;2022-07-29T03:10:49;1014.2;;;14.5625;42.9686
73306;BME280;61530;51.158;0.880;2022-07-29T03:11:48;1014.21;;;14.5;41.2006
73306;BME280;61530;51.158;0.880;2022-07-29T03:12:55;1014.22;;;14.3125;43.6819
73306;BME280;61530;51.158;0.880;2022-07-29T03:14:01;1014.21;;;14.3125;43.6242
73306;BME280;61530;51.158;0.880;2022-07-29T03:15:01;1014.21;;;14.3125;43.7626
73306;BME280;61530;51.158;0.880;2022-07-29T03:16:09;1014.21;;;14.4375;43.7515
73306;BME280;61530;51.158;0.880;2022-07-29T03:17:09;1014.18;;;14.5;43.7461
73306;BME280;61530;51.158;0.880;2022-07-29T03:18:15;1014.2;;;14.625;43.6497
73306;BME280;61530;51.158;0.880;2022-07-29T03:19:20;1014.21;;;14.75;43.3159
73306;BME280;61530;51.158;0.880;2022-07-29T03:20:21;1014.17;;;14.8125;43.4663
73306;BME280;61530;51.158;0.880;2022-07-29T03:21:26;1014.24;;;15.0;43.2018
73306;BME280;61530;51.158;0.880;2022-07-29T03:22:33;1014.2;;;15.0;42.7815
73306;BME280;61530;51.158;0.880;2022-07-29T03:23:32;1014.25;;;15.125;42.7008
73306;BME280;61530;51.158;0.880;2022-07-29T03:24:38;1014.25;;;15.1875;42.6203
73306;BME280;61530;51.158;0.880;2022-07-29T03:25:44;1014.25;;;15.1875;42.7643
73306;BME280;61530;51.158;0.880;2022-07-29T03:26:44;1014.22;;;15.1875;41.9346
73306;BME280;61530;51.158;0.880;2022-07-29T03:27:51;1014.22;;;15.1875;42.6267
73306;BME280;61530;51.158;0.880;2022-07-29T03:28:56;1014.21;;;15.3125;42.7073
73306;BME280;61530;51.158;0.880;2022-07-29T03:29:56;1014.19;;;15.375;42.5804
73306;BME280;61530;51.158;0.880;2022-07-29T03:31:03;1014.18;;;15.4375;42.6954
73306;BME280;61530;51.158;0.880;2022-07-29T03:32:08;1014.18;;;15.5;42.4875
73306;BME280;61530;51.158;0.880;2022-07-29T03:33:08;1014.19;;;15.5625;42.8274
73306;BME280;61530;51.158;0.880;2022-07-29T03:34:14;1014.19;;;15.6875;43.1156
73306;BME280;61530;51.158;0.880;2022-07-29T03:35:20;1014.19;;;15.6875;42.7064
73306;BME280;61530;51.158;0.880;2022-07-29T03:36:20;1014.21;;;15.6875;42.3031
73306;BME280;61530;51.158;0.880;2022-07-29T03:37:27;1014.19;;;15.5625;42.5967
73306;BME280;61530;51.158;0.880;2022-07-29T03:38:34;1014.21;;;15.5;42.6262
73306;BME280;61530;51.158;0.880;2022-07-29T03:39:38;1014.19;;;15.5;42.5685
73306;BME280;61530;51.158;0.880;2022-07-29T03:40:35;1014.16;;;15.5;42.4476
73306;BME280;61530;51.158;0.880;2022-07-29T03:41:34;1014.16;;;15.5625;42.9656
73306;BME280;61530;51.158;0.880;2022-07-29T03:42:40;1014.16;;;15.6875;43.2824
73306;BME280;61530;51.158;0.880;2022-07-29T03:43:40;1014.17;;;15.6875;42.8681
73306;BME280;61530;51.158;0.880;2022-07-29T03:44:47;1014.19;;;15.625;43.064
73306;BME280;61530;51.158;0.880;2022-07-29T03:45:52;1014.21;;;15.625;43.3002
73306;BME280;61530;51.158;0.880;2022-07-29T03:46:51;1014.2;;;15.6875;43.0873
73306;BME280;61530;51.158;0.880;2022-07-29T03:48:01;1014.22;;;15.75;42.6147
73306;BME280;61530;51.158;0.880;2022-07-29T03:49:04;1014.22;;;15.75;43.0183
73306;BME280;61530;51.158;0.880;2022-07-29T03:50:06;1014.25;;;15.8125;43.1338
73306;BME280;61530;51.158;0.880;2022-07-29T03:51:09;1014.24;;;15.8125;43.122
73306;BME280;61530;51.158;0.880;2022-07-29T03:52:14;1014.26;;;15.8125;43.2436
73306;BME280;61530;51.158;0.880;2022-07-29T03:53:14;1014.25;;;15.8125;43.07
73306;BME280;61530;51.158;0.880;2022-07-29T03:54:16;1014.29;;;15.8125;43.2545
73306;BME280;61530;51.158;0.880;2022-07-29T03:55:22;1014.27;;;15.875;43.3238
73306;BME280;61530;51.158;0.880;2022-07-29T03:56:28;1014.27;;;15.875;43.2309
73306;BME280;61530;51.158;0.880;2022-07-29T03:57:35;1014.26;;;15.875;43.5825
73306;BME280;61530;51.158;0.880;2022-07-29T03:58:39;1014.28;;;16.0;43.2879
73306;BME280;61530;51.158;0.880;2022-07-29T03:59:40;1014.29;;;15.875;43.4094
73306;BME280;61530;51.158;0.880;2022-07-29T04:00:40;1014.31;;;15.9375;43.4498
73306;BME280;61530;51.158;0.880;2022-07-29T04:01:46;1014.31;;;16.0;43.2022
73306;BME280;61530;51.158;0.880;2022-07-29T04:02:51;1014.31;;;15.9375;43.093
73306;BME280;61530;51.158;0.880;2022-07-29T04:03:58;1014.32;;;15.8125;42.8334
73306;BME280;61530;51.158;0.880;2022-07-29T04:05:04;1014.31;;;15.875;43.214
73306;BME280;61530;51.158;0.880;2022-07-29T04:06:05;1014.3;;;15.9375;43.2486
73306;BME280;61530;51.158;0.880;2022-07-29T04:07:12;1014.3;;;15.875;43.0125
73306;BME280;61530;51.158;0.880;2022-07-29T04:08:15;1014.3;;;15.875;43.047
73306;BME280;61530;51.158;0.880;2022-07-29T04:09:15;1014.32;;;15.8125;43.0355
73306;BME280;61530;51.158;0.880;2022-07-29T04:10:22;1014.32;;;15.8125;43.0413
73306;BME280;61530;51.158;0.880;2022-07-29T04:11:27;1014.32;;;15.875;43.3057
73306;BME280;61530;51.158;0.880;2022-07-29T04:12:27;1014.29;;;15.875;43.5938
73306;BME280;61530;51.158;0.880;2022-07-29T04:13:34;1014.3;;;15.875;44.0035
73306;BME280;61530;51.158;0.880;2022-07-29T04:14:39;1014.3;;;15.875;42.8219
73306;BME280;61530;51.158;0.880;2022-07-29T04:15:39;1014.3;;;15.75;43.0403
73306;BME280;61530;51.158;0.880;2022-07-29T04:16:46;1014.27;;;15.625;43.2477
73306;BME280;61530;51.158;0.880;2022-07-29T04:17:51;1014.26;;;15.5625;42.931
73306;BME280;61530;51.158;0.880;2022-07-29T04:18:51;1014.28;;;15.5625;43.1272
73306;BME280;61530;51.158;0.880;2022-07-29T04:19:58;1014.28;;;15.4375;42.6718
73306;BME280;61530;51.158;0.880;2022-07-29T04:21:03;1014.28;;;15.375;43.0865
73306;BME280;61530;51.158;0.880;2022-07-29T04:22:03;1014.29;;;15.3125;43.3403
73306;BME280;61530;51.158;0.880;2022-07-29T04:23:10;1014.25;;;15.375;43.2362
73306;BME280;61530;51.158;0.880;2022-07-29T04:24:15;1014.23;;;15.4375;43.5241
73306;BME280;61530;51.158;0.880;2022-07-29T04:25:15;1014.23;;;15.4375;42.902
73306;BME280;61530;51.158;0.880;2022-07-29T04:26:22;1014.24;;;15.5;43.5072
73306;BME280;61530;51.158;0.880;2022-07-29T04:27:30;1014.24;;;15.5;43.4957
73306;BME280;61530;51.158;0.880;2022-07-29T04:28:36;1014.25;;;15.625;43.3343
73306;BME280;61530;51.158;0.880;2022-07-29T04:29:37;1014.25;;;15.5625;41.9396
73306;BME280;61530;51.158;0.880;2022-07-29T04:30:38;1014.24;;;15.4375;42.3662
73306;BME280;61530;51.158;0.880;2022-07-29T04:31:43;1014.25;;;15.3125;42.5107
73306;BME280;61530;51.158;0.880;2022-07-29T04:32:42;1014.24;;;15.3125;42.5392
73306;BME280;61530;51.158;0.880;2022-07-29T04:33:50;1014.25;;;15.1875;42.8272
73306;BME280;61530;51.158;0.880;2022-07-29T04:34:55;1014.26;;;15.25;42.7757
73306;BME280;61530;51.158;0.880;2022-07-29T04:35:55;1014.24;;;15.3125;42.9022
73306;BME280;61530;51.158;0.880;2022-07-29T04:37:02;1014.24;;;15.3125;43.2189
73306;BME280;61530;51.158;0.880;2022-07-29T04:38:07;1014.23;;;15.4375;43.2076
73306;BME280;61530;51.158;0.880;2022-07-29T04:39:07;1014.2;;;15.4375;43.2765
73306;BME280;61530;51.158;0.880;2022-07-29T04:40:14;1014.19;;;15.5625;43.512
73306;BME280;61530;51.158;0.880;2022-07-29T04:41:19;1014.22;;;15.5625;43.6731
73306;BME280;61530;51.158;0.880;2022-07-29T04:42:19;1014.22;;;15.625;43.9441
73306;BME280;61530;51.158;0.880;2022-07-29T04:43:26;1014.2;;;15.6875;43.8579
73306;BME280;61530;51.158;0.880;2022-07-29T04:44:31;1014.2;;;15.625;44.0131
73306;BME280;61530;51.158;0.880;2022-07-29T04:45:31;1014.24;;;15.75;43.927
73306;BME280;61530;51.158;0.880;2022-07-29T04:46:38;1014.24;;;15.75;43.881
73306;BME280;61530;51.158;0.880;2022-07-29T04:47:43;1014.24;;;15.75;43.5527
73306;BME280;61530;51.158;0.880;2022-07-29T04:48:45;1014.25;;;15.75;43.4605
73306;BME280;61530;51.158;0.880;2022-07-29T04:49:50;1014.26;;;15.75;43.6795
73306;BME280;61530;51.158;0.880;2022-07-29T04:50:55;1014.27;;;15.75;43.7536
73306;BME280;61530;51.158;0.880;2022-07-29T04:51:55;1014.28;;;15.75;43.9032
73306;BME280;61530;51.158;0.880;2022-07-29T04:53:02;1014.28;;;15.75;44.1504
73306;BME280;61530;51.158;0.880;2022-07-29T04:54:07;1014.28;;;15.75;44.001
73306;BME280;61530;51.158;0.880;2022-07-29T04:55:08;1014.28;;;15.75;43.9494
73306;BME280;61530;51.158;0.880;2022-07-29T04:56:07;1014.27;;;15.6875;43.679
73306;BME280;61530;51.158;0.880;2022-07-29T04:57:13;1014.29;;;15.75;43.9149
73306;BME280;61530;51.158;0.880;2022-07-29T04:58:19;1014.28;;;15.625;44.2895
73306;BME280;61530;51.158;0.880;2022-07-29T04:59:26;1014.28;;;15.6875;43.8577
73306;BME280;61530;51.158;0.880;2022-07-29T05:00:31;1014.33;;;15.75;43.938
73306;BME280;61530;51.158;0.880;2022-07-29T05:01:31;1014.34;;;15.6875;44.0647
73306;BME280;61530;51.158;0.880;2022-07-29T05:02:38;1014.34;;;15.75;43.2874
73306;BME280;61530;51.158;0.880;2022-07-29T05:03:43;1014.32;;;15.75;44.3474
73306;BME280;61530;51.158;0.880;2022-07-29T05:04:43;1014.34;;;15.75;43.8063
73306;BME280;61530;51.158;0.880;2022-07-29T05:05:50;1014.36;;;15.75;43.7486
73306;BME280;61530;51.158;0.880;2022-07-29T05:06:55;1014.35;;;15.75;43.7716
73306;BME280;61530;51.158;0.880;2022-07-29T05:07:55;1014.36;;;15.75;43.7428
73306;BME280;61530;51.158;0.880;2022-07-29T05:09:02;1014.38;;;15.8125;44.2092
73306;BME280;61530;51.158;0.880;2022-07-29T05:10:08;1014.38;;;15.75;43.3742
73306;BME280;61530;51.158;0.880;2022-07-29T05:11:07;1014.42;;;15.75;44.1573
73306;BME280;61530;51.158;0.880;2022-07-29T05:12:14;1014.43;;;15.75;44.0361
73306;BME280;61530;51.158;0.880;2022-07-29T05:13:19;1014.42;;;15.8125;43.9559
73306;BME280;61530;51.158;0.880;2022-07-29T05:14:19;1014.43;;;15.8125;44.0361
73306;BME280;61530;51.158;0.880;2022-07-29T05:15:26;1014.45;;;15.8125;44.1052
73306;BME280;61530;51.158;0.880;2022-07-29T05:16:31;1014.43;;;15.75;44.1858
73306;BME280;61530;51.158;0.880;2022-07-29T05:17:31;1014.45;;;15.8125;44.1399
73306;BME280;61530;51.158;0.880;2022-07-29T05:18:38;1014.45;;;15.8125;43.9559
73306;BME280;61530;51.158;0.880;2022-07-29T05:19:43;1014.45;;;15.8125;44.0655
73306;BME280;61530;51.158;0.880;2022-07-29T05:20:43;1014.43;;;15.8125;43.8531
73306;BME280;61530;51.158;0.880;2022-07-29T05:21:50;1014.46;;;15.875;44.2724
73306;BME280;61530;51.158;0.880;2022-07-29T05:22:55;1014.43;;;15.8125;44.1345
73306;BME280;61530;51.158;0.880;2022-07-29T05:23:55;1014.47;;;15.8125;44.3701
73306;BME280;61530;51.158;0.880;2022-07-29T05:25:03;1014.47;;;15.8125;44.8939
73306;BME280;61530;51.158;0.880;2022-07-29T05:26:07;1014.45;;;15.8125;44.0476
73306;BME280;61530;51.158;0.880;2022-07-29T05:27:07;1014.46;;;15.5625;43.8636
73306;BME280;61530;51.158;0.880;2022-07-29T05:28:14;1014.46;;;15.375;44.272
73306;BME280;61530;51.158;0.880;2022-07-29T05:29:19;1014.47;;;15.25;44.0881